sensor_id;sensor_type;location;lat;lon;timestamp;P1;durP1;ratioP1;P2;durP2;ratioP2
62711;SDS011;48772;55.586;37.730;2023-05-10T00:00:37;13.85;;;6.53;;
62711;SDS011;48772;55.586;37.730;2023-05-10T00:03:03;17.75;;;8.65;;
62711;SDS011;48772;55.586;37.730;2023-05-10T00:05:30;21.52;;;8.55;;
62711;SDS011;48772;55.586;37.730;2023-05-10T00:07:56;26.95;;;10.95;;
62711;SDS011;48772;55.586;37.730;2023-05-10T00:10:22;31.25;;;12.60;;
62711;SDS011;48772;55.586;37.730;2023-05-10T00:12:48;20.50;;;10.45;;
62711;SDS011;48772;55.586;37.730;2023-05-10T00:15:14;25.67;;;11.65;;
62711;SDS011;48772;55.586;37.730;2023-05-10T00:17:40;30.35;;;12.15;;
62711;SDS011;48772;55.586;37.730;2023-05-10T00:20:06;31.73;;;12.48;;
62711;SDS011;48772;55.586;37.730;2023-05-10T00:22:32;24.20;;;11.70;;
62711;SDS011;48772;55.586;37.730;2023-05-10T00:24:59;34.80;;;13.02;;
62711;SDS011;48772;55.586;37.730;2023-05-10T00:27:25;26.00;;;9.45;;
62711;SDS011;48772;55.586;37.730;2023-05-10T00:29:51;19.95;;;9.90;;
62711;SDS011;48772;55.586;37.730;2023-05-10T00:32:17;23.25;;;11.38;;
62711;SDS011;48772;55.586;37.730;2023-05-10T00:34:43;30.02;;;12.32;;
62711;SDS011;48772;55.586;37.730;2023-05-10T00:37:09;32.80;;;12.95;;
62711;SDS011;48772;55.586;37.730;2023-05-10T00:39:34;19.10;;;9.15;;
62711;SDS011;48772;55.586;37.730;2023-05-10T00:42:00;14.38;;;6.40;;
62711;SDS011;48772;55.586;37.730;2023-05-10T00:44:26;10.27;;;5.88;;
62711;SDS011;48772;55.586;37.730;2023-05-10T00:46:53;14.45;;;6.80;;
62711;SDS011;48772;55.586;37.730;2023-05-10T00:49:19;18.30;;;8.27;;
62711;SDS011;48772;55.586;37.730;2023-05-10T00:51:46;28.10;;;11.48;;
62711;SDS011;48772;55.586;37.730;2023-05-10T00:54:12;22.10;;;11.52;;
62711;SDS011;48772;55.586;37.730;2023-05-10T00:56:40;23.48;;;11.20;;
62711;SDS011;48772;55.586;37.730;2023-05-10T00:59:06;19.05;;;10.68;;
62711;SDS011;48772;55.586;37.730;2023-05-10T01:01:34;22.15;;;11.80;;
62711;SDS011;48772;55.586;37.730;2023-05-10T01:04:01;17.35;;;8.05;;
62711;SDS011;48772;55.586;37.730;2023-05-10T01:06:28;21.27;;;11.00;;
62711;SDS011;48772;55.586;37.730;2023-05-10T01:08:54;19.40;;;9.60;;
62711;SDS011;48772;55.586;37.730;2023-05-10T01:11:21;23.83;;;11.63;;
62711;SDS011;48772;55.586;37.730;2023-05-10T01:13:50;19.77;;;10.25;;
62711;SDS011;48772;55.586;37.730;2023-05-10T01:16:20;23.27;;;9.52;;
62711;SDS011;48772;55.586;37.730;2023-05-10T01:18:47;14.52;;;7.28;;
62711;SDS011;48772;55.586;37.730;2023-05-10T01:21:17;21.30;;;8.27;;
62711;SDS011;48772;55.586;37.730;2023-05-10T01:23:46;21.08;;;9.07;;
62711;SDS011;48772;55.586;37.730;2023-05-10T01:29:11;12.85;;;6.88;;
62711;SDS011;48772;55.586;37.730;2023-05-10T01:35:03;12.65;;;5.38;;
62711;SDS011;48772;55.586;37.730;2023-05-10T01:37:36;14.02;;;5.18;;
62711;SDS011;48772;55.586;37.730;2023-05-10T01:40:10;21.20;;;8.77;;
62711;SDS011;48772;55.586;37.730;2023-05-10T01:42:51;18.98;;;8.88;;
62711;SDS011;48772;55.586;37.730;2023-05-10T01:48:11;13.18;;;8.32;;
62711;SDS011;48772;55.586;37.730;2023-05-10T01:50:39;18.30;;;9.40;;
62711;SDS011;48772;55.586;37.730;2023-05-10T01:53:10;18.15;;;9.75;;
62711;SDS011;48772;55.586;37.730;2023-05-10T01:56:11;23.00;;;8.75;;
62711;SDS011;48772;55.586;37.730;2023-05-10T01:58:31;19.20;;;7.35;;
62711;SDS011;48772;55.586;37.730;2023-05-10T02:00:59;20.38;;;7.03;;
62711;SDS011;48772;55.586;37.730;2023-05-10T02:03:28;22.23;;;8.52;;
62711;SDS011;48772;55.586;37.730;2023-05-10T02:05:56;15.65;;;6.25;;
62711;SDS011;48772;55.586;37.730;2023-05-10T02:08:23;15.93;;;8.07;;
62711;SDS011;48772;55.586;37.730;2023-05-10T02:10:50;27.40;;;9.82;;
62711;SDS011;48772;55.586;37.730;2023-05-10T02:13:19;26.23;;;9.50;;
62711;SDS011;48772;55.586;37.730;2023-05-10T02:15:48;25.52;;;9.10;;
62711;SDS011;48772;55.586;37.730;2023-05-10T02:18:15;14.32;;;8.15;;
62711;SDS011;48772;55.586;37.730;2023-05-10T02:20:44;19.35;;;7.20;;
62711;SDS011;48772;55.586;37.730;2023-05-10T02:23:11;14.40;;;6.70;;
62711;SDS011;48772;55.586;37.730;2023-05-10T02:25:38;10.15;;;5.50;;
62711;SDS011;48772;55.586;37.730;2023-05-10T02:28:06;14.30;;;5.80;;
62711;SDS011;48772;55.586;37.730;2023-05-10T02:30:35;17.83;;;6.88;;
62711;SDS011;48772;55.586;37.730;2023-05-10T02:33:02;16.00;;;6.72;;
62711;SDS011;48772;55.586;37.730;2023-05-10T02:35:29;21.05;;;8.07;;
62711;SDS011;48772;55.586;37.730;2023-05-10T02:37:59;22.80;;;9.30;;
62711;SDS011;48772;55.586;37.730;2023-05-10T02:40:26;17.75;;;8.85;;
62711;SDS011;48772;55.586;37.730;2023-05-10T02:42:54;23.98;;;9.23;;
62711;SDS011;48772;55.586;37.730;2023-05-10T02:45:23;24.75;;;8.77;;
62711;SDS011;48772;55.586;37.730;2023-05-10T02:47:53;27.67;;;8.93;;
62711;SDS011;48772;55.586;37.730;2023-05-10T02:50:20;17.58;;;9.10;;
62711;SDS011;48772;55.586;37.730;2023-05-10T02:52:49;20.67;;;9.23;;
62711;SDS011;48772;55.586;37.730;2023-05-10T02:55:21;21.88;;;8.10;;
62711;SDS011;48772;55.586;37.730;2023-05-10T02:57:51;18.88;;;8.60;;
62711;SDS011;48772;55.586;37.730;2023-05-10T03:00:22;17.75;;;8.13;;
62711;SDS011;48772;55.586;37.730;2023-05-10T03:02:49;14.95;;;8.20;;
62711;SDS011;48772;55.586;37.730;2023-05-10T03:05:15;16.45;;;8.32;;
62711;SDS011;48772;55.586;37.730;2023-05-10T03:07:41;18.95;;;8.32;;
62711;SDS011;48772;55.586;37.730;2023-05-10T03:10:07;27.10;;;8.68;;
62711;SDS011;48772;55.586;37.730;2023-05-10T03:18:28;20.80;;;8.32;;
62711;SDS011;48772;55.586;37.730;2023-05-10T03:21:03;24.27;;;8.32;;
62711;SDS011;48772;55.586;37.730;2023-05-10T03:23:48;18.40;;;8.13;;
62711;SDS011;48772;55.586;37.730;2023-05-10T03:28:56;19.77;;;7.90;;
62711;SDS011;48772;55.586;37.730;2023-05-10T03:31:24;23.08;;;7.18;;
62711;SDS011;48772;55.586;37.730;2023-05-10T03:33:51;12.02;;;6.60;;
62711;SDS011;48772;55.586;37.730;2023-05-10T03:36:23;15.75;;;8.27;;
62711;SDS011;48772;55.586;37.730;2023-05-10T03:38:49;19.73;;;9.68;;
62711;SDS011;48772;55.586;37.730;2023-05-10T03:41:15;18.88;;;9.65;;
62711;SDS011;48772;55.586;37.730;2023-05-10T03:43:41;27.30;;;9.07;;
62711;SDS011;48772;55.586;37.730;2023-05-10T03:46:07;15.80;;;9.38;;
62711;SDS011;48772;55.586;37.730;2023-05-10T03:48:33;19.67;;;9.52;;
62711;SDS011;48772;55.586;37.730;2023-05-10T03:50:59;27.95;;;9.90;;
62711;SDS011;48772;55.586;37.730;2023-05-10T03:53:25;23.65;;;9.48;;
62711;SDS011;48772;55.586;37.730;2023-05-10T03:55:51;20.85;;;9.52;;
62711;SDS011;48772;55.586;37.730;2023-05-10T03:58:17;23.73;;;8.73;;
62711;SDS011;48772;55.586;37.730;2023-05-10T04:00:43;20.25;;;8.50;;
62711;SDS011;48772;55.586;37.730;2023-05-10T04:03:12;24.33;;;8.48;;
62711;SDS011;48772;55.586;37.730;2023-05-10T04:05:38;20.23;;;8.50;;
62711;SDS011;48772;55.586;37.730;2023-05-10T04:08:04;23.23;;;8.48;;
62711;SDS011;48772;55.586;37.730;2023-05-10T04:10:49;21.95;;;7.88;;
62711;SDS011;48772;55.586;37.730;2023-05-10T04:13:14;20.77;;;8.05;;
62711;SDS011;48772;55.586;37.730;2023-05-10T04:15:40;21.58;;;8.27;;
62711;SDS011;48772;55.586;37.730;2023-05-10T04:18:06;25.77;;;7.75;;
62711;SDS011;48772;55.586;37.730;2023-05-10T04:20:32;17.88;;;7.95;;
62711;SDS011;48772;55.586;37.730;2023-05-10T04:22:58;20.63;;;8.82;;
62711;SDS011;48772;55.586;37.730;2023-05-10T04:29:24;22.33;;;8.20;;
62711;SDS011;48772;55.586;37.730;2023-05-10T04:31:49;20.50;;;7.90;;
62711;SDS011;48772;55.586;37.730;2023-05-10T04:34:16;19.20;;;8.13;;
62711;SDS011;48772;55.586;37.730;2023-05-10T04:36:45;19.08;;;8.77;;
62711;SDS011;48772;55.586;37.730;2023-05-10T04:56:59;24.42;;;8.57;;
62711;SDS011;48772;55.586;37.730;2023-05-10T04:59:25;27.38;;;8.65;;
62711;SDS011;48772;55.586;37.730;2023-05-10T05:01:51;27.55;;;8.77;;
62711;SDS011;48772;55.586;37.730;2023-05-10T05:04:16;22.60;;;8.43;;
62711;SDS011;48772;55.586;37.730;2023-05-10T05:06:42;24.73;;;8.30;;
62711;SDS011;48772;55.586;37.730;2023-05-10T05:09:08;27.80;;;8.85;;
62711;SDS011;48772;55.586;37.730;2023-05-10T05:11:35;20.15;;;6.63;;
62711;SDS011;48772;55.586;37.730;2023-05-10T05:14:01;19.90;;;6.75;;
62711;SDS011;48772;55.586;37.730;2023-05-10T05:16:30;21.58;;;6.78;;
62711;SDS011;48772;55.586;37.730;2023-05-10T05:18:56;16.38;;;6.50;;
62711;SDS011;48772;55.586;37.730;2023-05-10T05:21:21;28.23;;;7.47;;
62711;SDS011;48772;55.586;37.730;2023-05-10T05:23:48;15.57;;;6.82;;
62711;SDS011;48772;55.586;37.730;2023-05-10T05:26:13;26.88;;;6.80;;
62711;SDS011;48772;55.586;37.730;2023-05-10T05:28:40;6.82;;;4.40;;
62711;SDS011;48772;55.586;37.730;2023-05-10T05:31:06;8.38;;;3.25;;
62711;SDS011;48772;55.586;37.730;2023-05-10T05:33:35;12.77;;;3.47;;
62711;SDS011;48772;55.586;37.730;2023-05-10T05:36:01;8.95;;;3.50;;
62711;SDS011;48772;55.586;37.730;2023-05-10T05:38:29;7.53;;;2.78;;
62711;SDS011;48772;55.586;37.730;2023-05-10T05:40:56;7.28;;;2.70;;
62711;SDS011;48772;55.586;37.730;2023-05-10T05:43:22;5.25;;;2.90;;
62711;SDS011;48772;55.586;37.730;2023-05-10T05:45:48;7.40;;;2.38;;
62711;SDS011;48772;55.586;37.730;2023-05-10T05:48:14;5.00;;;2.75;;
62711;SDS011;48772;55.586;37.730;2023-05-10T05:50:40;5.18;;;2.60;;
62711;SDS011;48772;55.586;37.730;2023-05-10T05:53:06;8.93;;;2.45;;
62711;SDS011;48772;55.586;37.730;2023-05-10T05:55:32;9.43;;;2.10;;
62711;SDS011;48772;55.586;37.730;2023-05-10T06:38:47;7.60;;;1.45;;
62711;SDS011;48772;55.586;37.730;2023-05-10T06:41:14;3.42;;;1.60;;
62711;SDS011;48772;55.586;37.730;2023-05-10T06:43:39;3.28;;;1.70;;
62711;SDS011;48772;55.586;37.730;2023-05-10T06:46:07;4.43;;;1.58;;
62711;SDS011;48772;55.586;37.730;2023-05-10T06:48:33;6.35;;;1.73;;
62711;SDS011;48772;55.586;37.730;2023-05-10T06:50:59;4.93;;;1.80;;
62711;SDS011;48772;55.586;37.730;2023-05-10T06:53:25;5.43;;;1.70;;
62711;SDS011;48772;55.586;37.730;2023-05-10T06:55:51;3.15;;;1.70;;
62711;SDS011;48772;55.586;37.730;2023-05-10T06:58:18;4.30;;;2.35;;
62711;SDS011;48772;55.586;37.730;2023-05-10T07:00:44;6.60;;;1.65;;
62711;SDS011;48772;55.586;37.730;2023-05-10T07:03:11;2.97;;;1.30;;
62711;SDS011;48772;55.586;37.730;2023-05-10T07:05:37;5.25;;;1.50;;
62711;SDS011;48772;55.586;37.730;2023-05-10T07:08:04;3.22;;;1.70;;
62711;SDS011;48772;55.586;37.730;2023-05-10T07:10:31;2.30;;;1.48;;
62711;SDS011;48772;55.586;37.730;2023-05-10T07:12:57;2.40;;;1.58;;
62711;SDS011;48772;55.586;37.730;2023-05-10T07:15:24;5.45;;;1.52;;
62711;SDS011;48772;55.586;37.730;2023-05-10T07:17:51;4.00;;;1.58;;
62711;SDS011;48772;55.586;37.730;2023-05-10T07:20:19;4.45;;;1.60;;
62711;SDS011;48772;55.586;37.730;2023-05-10T07:22:45;7.50;;;2.13;;
62711;SDS011;48772;55.586;37.730;2023-05-10T07:25:14;5.95;;;2.10;;
62711;SDS011;48772;55.586;37.730;2023-05-10T07:27:43;2.58;;;1.83;;
62711;SDS011;48772;55.586;37.730;2023-05-10T07:30:09;3.53;;;1.40;;
62711;SDS011;48772;55.586;37.730;2023-05-10T07:32:36;4.90;;;1.83;;
62711;SDS011;48772;55.586;37.730;2023-05-10T07:35:02;3.88;;;1.75;;
62711;SDS011;48772;55.586;37.730;2023-05-10T07:37:30;4.30;;;1.70;;
62711;SDS011;48772;55.586;37.730;2023-05-10T07:39:56;3.53;;;1.50;;
62711;SDS011;48772;55.586;37.730;2023-05-10T07:42:23;4.38;;;1.70;;
62711;SDS011;48772;55.586;37.730;2023-05-10T07:44:49;4.38;;;1.73;;
62711;SDS011;48772;55.586;37.730;2023-05-10T07:47:14;3.75;;;1.70;;
62711;SDS011;48772;55.586;37.730;2023-05-10T07:49:40;7.50;;;1.73;;
62711;SDS011;48772;55.586;37.730;2023-05-10T07:52:06;5.60;;;1.70;;
62711;SDS011;48772;55.586;37.730;2023-05-10T07:54:32;7.15;;;1.80;;
62711;SDS011;48772;55.586;37.730;2023-05-10T07:56:59;8.68;;;1.65;;
62711;SDS011;48772;55.586;37.730;2023-05-10T07:59:25;5.03;;;1.48;;
62711;SDS011;48772;55.586;37.730;2023-05-10T08:01:52;2.28;;;1.40;;
62711;SDS011;48772;55.586;37.730;2023-05-10T08:04:18;2.13;;;1.55;;
62711;SDS011;48772;55.586;37.730;2023-05-10T08:06:44;2.95;;;1.40;;
62711;SDS011;48772;55.586;37.730;2023-05-10T08:09:10;2.13;;;1.60;;
62711;SDS011;48772;55.586;37.730;2023-05-10T08:11:40;2.53;;;1.63;;
62711;SDS011;48772;55.586;37.730;2023-05-10T08:14:15;3.13;;;1.90;;
62711;SDS011;48772;55.586;37.730;2023-05-10T08:16:43;8.75;;;1.77;;
62711;SDS011;48772;55.586;37.730;2023-05-10T08:19:11;2.83;;;1.65;;
62711;SDS011;48772;55.586;37.730;2023-05-10T08:21:37;9.00;;;1.90;;
62711;SDS011;48772;55.586;37.730;2023-05-10T08:24:04;6.13;;;1.80;;
62711;SDS011;48772;55.586;37.730;2023-05-10T08:26:33;4.72;;;1.52;;
62711;SDS011;48772;55.586;37.730;2023-05-10T08:28:59;5.82;;;1.70;;
62711;SDS011;48772;55.586;37.730;2023-05-10T08:31:25;2.75;;;1.65;;
62711;SDS011;48772;55.586;37.730;2023-05-10T08:33:51;2.10;;;1.35;;
62711;SDS011;48772;55.586;37.730;2023-05-10T08:36:18;4.00;;;1.38;;
62711;SDS011;48772;55.586;37.730;2023-05-10T08:38:51;3.70;;;1.58;;
62711;SDS011;48772;55.586;37.730;2023-05-10T08:41:23;3.92;;;1.60;;
62711;SDS011;48772;55.586;37.730;2023-05-10T08:43:53;4.80;;;1.30;;
62711;SDS011;48772;55.586;37.730;2023-05-10T08:46:21;5.07;;;1.55;;
62711;SDS011;48772;55.586;37.730;2023-05-10T08:48:49;6.70;;;1.55;;
62711;SDS011;48772;55.586;37.730;2023-05-10T08:51:18;4.75;;;1.48;;
62711;SDS011;48772;55.586;37.730;2023-05-10T08:53:45;2.88;;;1.60;;
62711;SDS011;48772;55.586;37.730;2023-05-10T08:56:11;5.43;;;1.50;;
62711;SDS011;48772;55.586;37.730;2023-05-10T08:58:38;5.10;;;1.40;;
62711;SDS011;48772;55.586;37.730;2023-05-10T09:01:05;3.17;;;1.45;;
62711;SDS011;48772;55.586;37.730;2023-05-10T09:03:31;4.57;;;1.80;;
62711;SDS011;48772;55.586;37.730;2023-05-10T09:05:58;3.70;;;1.60;;
62711;SDS011;48772;55.586;37.730;2023-05-10T09:08:24;2.78;;;1.60;;
62711;SDS011;48772;55.586;37.730;2023-05-10T09:10:56;3.92;;;1.40;;
62711;SDS011;48772;55.586;37.730;2023-05-10T09:13:23;2.72;;;1.63;;
62711;SDS011;48772;55.586;37.730;2023-05-10T09:15:51;3.53;;;1.45;;
62711;SDS011;48772;55.586;37.730;2023-05-10T09:18:18;3.25;;;1.55;;
62711;SDS011;48772;55.586;37.730;2023-05-10T09:20:44;5.07;;;1.40;;
62711;SDS011;48772;55.586;37.730;2023-05-10T09:23:14;4.85;;;1.27;;
62711;SDS011;48772;55.586;37.730;2023-05-10T09:25:41;3.30;;;1.70;;
62711;SDS011;48772;55.586;37.730;2023-05-10T09:28:08;2.35;;;1.40;;
62711;SDS011;48772;55.586;37.730;2023-05-10T09:30:35;6.70;;;1.83;;
62711;SDS011;48772;55.586;37.730;2023-05-10T09:33:01;3.15;;;1.70;;
62711;SDS011;48772;55.586;37.730;2023-05-10T09:35:29;6.10;;;1.90;;
62711;SDS011;48772;55.586;37.730;2023-05-10T09:41:19;3.95;;;1.80;;
62711;SDS011;48772;55.586;37.730;2023-05-10T09:43:57;2.95;;;1.60;;
62711;SDS011;48772;55.586;37.730;2023-05-10T09:46:25;2.05;;;1.60;;
62711;SDS011;48772;55.586;37.730;2023-05-10T09:48:51;7.25;;;1.77;;
62711;SDS011;48772;55.586;37.730;2023-05-10T09:51:19;2.72;;;1.70;;
62711;SDS011;48772;55.586;37.730;2023-05-10T09:54:08;6.63;;;2.30;;
62711;SDS011;48772;55.586;37.730;2023-05-10T09:56:51;3.95;;;1.98;;
62711;SDS011;48772;55.586;37.730;2023-05-10T09:59:42;6.28;;;1.90;;
62711;SDS011;48772;55.586;37.730;2023-05-10T10:02:09;4.13;;;1.63;;
62711;SDS011;48772;55.586;37.730;2023-05-10T10:04:40;7.05;;;1.80;;
62711;SDS011;48772;55.586;37.730;2023-05-10T10:07:08;4.72;;;2.10;;
62711;SDS011;48772;55.586;37.730;2023-05-10T10:09:35;4.53;;;1.77;;
62711;SDS011;48772;55.586;37.730;2023-05-10T10:12:02;4.90;;;2.40;;
62711;SDS011;48772;55.586;37.730;2023-05-10T10:14:30;3.85;;;1.95;;
62711;SDS011;48772;55.586;37.730;2023-05-10T10:16:57;5.68;;;1.83;;
62711;SDS011;48772;55.586;37.730;2023-05-10T10:19:26;4.72;;;1.98;;
62711;SDS011;48772;55.586;37.730;2023-05-10T10:21:53;5.72;;;2.03;;
62711;SDS011;48772;55.586;37.730;2023-05-10T10:24:22;7.90;;;2.30;;
62711;SDS011;48772;55.586;37.730;2023-05-10T10:26:49;6.68;;;2.10;;
62711;SDS011;48772;55.586;37.730;2023-05-10T10:35:06;5.35;;;2.28;;
62711;SDS011;48772;55.586;37.730;2023-05-10T10:37:44;6.40;;;2.10;;
62711;SDS011;48772;55.586;37.730;2023-05-10T10:40:30;5.75;;;2.00;;
62711;SDS011;48772;55.586;37.730;2023-05-10T10:48:50;5.00;;;2.08;;
62711;SDS011;48772;55.586;37.730;2023-05-10T10:52:12;6.03;;;2.20;;
62711;SDS011;48772;55.586;37.730;2023-05-10T10:57:49;7.72;;;2.17;;
62711;SDS011;48772;55.586;37.730;2023-05-10T11:02:49;5.95;;;2.30;;
62711;SDS011;48772;55.586;37.730;2023-05-10T11:05:24;4.45;;;2.05;;
62711;SDS011;48772;55.586;37.730;2023-05-10T11:08:09;6.90;;;2.30;;
62711;SDS011;48772;55.586;37.730;2023-05-10T11:13:06;2.70;;;2.05;;
62711;SDS011;48772;55.586;37.730;2023-05-10T11:15:52;7.70;;;2.30;;
62711;SDS011;48772;55.586;37.730;2023-05-10T11:18:26;4.18;;;2.08;;
62711;SDS011;48772;55.586;37.730;2023-05-10T11:21:00;9.95;;;2.50;;
62711;SDS011;48772;55.586;37.730;2023-05-10T11:26:04;7.85;;;2.60;;
62711;SDS011;48772;55.586;37.730;2023-05-10T11:28:36;3.80;;;2.20;;
62711;SDS011;48772;55.586;37.730;2023-05-10T11:31:16;4.57;;;2.28;;
62711;SDS011;48772;55.586;37.730;2023-05-10T11:33:50;12.10;;;2.58;;
62711;SDS011;48772;55.586;37.730;2023-05-10T11:36:19;4.70;;;2.40;;
62711;SDS011;48772;55.586;37.730;2023-05-10T11:38:46;6.07;;;3.35;;
62711;SDS011;48772;55.586;37.730;2023-05-10T11:41:14;2.33;;;2.13;;
62711;SDS011;48772;55.586;37.730;2023-05-10T11:43:42;5.53;;;2.28;;
62711;SDS011;48772;55.586;37.730;2023-05-10T11:46:09;6.45;;;2.03;;
62711;SDS011;48772;55.586;37.730;2023-05-10T11:48:40;7.82;;;3.45;;
62711;SDS011;48772;55.586;37.730;2023-05-10T11:51:07;5.70;;;2.20;;
62711;SDS011;48772;55.586;37.730;2023-05-10T11:53:34;4.05;;;2.28;;
62711;SDS011;48772;55.586;37.730;2023-05-10T11:58:30;8.98;;;2.35;;
62711;SDS011;48772;55.586;37.730;2023-05-10T12:00:57;4.57;;;2.22;;
62711;SDS011;48772;55.586;37.730;2023-05-10T12:03:26;4.25;;;2.40;;
62711;SDS011;48772;55.586;37.730;2023-05-10T12:05:53;8.30;;;2.33;;
62711;SDS011;48772;55.586;37.730;2023-05-10T12:08:21;5.35;;;2.70;;
62711;SDS011;48772;55.586;37.730;2023-05-10T12:10:48;7.13;;;2.40;;
62711;SDS011;48772;55.586;37.730;2023-05-10T12:13:15;3.50;;;2.58;;
62711;SDS011;48772;55.586;37.730;2023-05-10T12:15:41;6.03;;;2.50;;
62711;SDS011;48772;55.586;37.730;2023-05-10T12:18:11;3.10;;;1.90;;
62711;SDS011;48772;55.586;37.730;2023-05-10T12:20:38;6.47;;;2.40;;
62711;SDS011;48772;55.586;37.730;2023-05-10T12:23:05;4.82;;;2.10;;
62711;SDS011;48772;55.586;37.730;2023-05-10T12:25:34;5.03;;;2.60;;
62711;SDS011;48772;55.586;37.730;2023-05-10T12:28:04;9.13;;;2.47;;
62711;SDS011;48772;55.586;37.730;2023-05-10T12:30:35;6.05;;;2.60;;
62711;SDS011;48772;55.586;37.730;2023-05-10T12:33:02;2.92;;;2.22;;
62711;SDS011;48772;55.586;37.730;2023-05-10T12:35:47;4.93;;;2.47;;
62711;SDS011;48772;55.586;37.730;2023-05-10T12:38:28;6.00;;;2.10;;
62711;SDS011;48772;55.586;37.730;2023-05-10T12:40:58;3.78;;;2.10;;
62711;SDS011;48772;55.586;37.730;2023-05-10T12:43:25;5.07;;;2.80;;
62711;SDS011;48772;55.586;37.730;2023-05-10T12:45:51;7.90;;;2.17;;
62711;SDS011;48772;55.586;37.730;2023-05-10T12:48:18;8.10;;;2.58;;
62711;SDS011;48772;55.586;37.730;2023-05-10T12:50:43;5.70;;;2.33;;
62711;SDS011;48772;55.586;37.730;2023-05-10T12:53:10;4.82;;;2.28;;
62711;SDS011;48772;55.586;37.730;2023-05-10T12:55:36;3.45;;;2.20;;
62711;SDS011;48772;55.586;37.730;2023-05-10T12:58:02;13.25;;;2.95;;
62711;SDS011;48772;55.586;37.730;2023-05-10T13:00:28;2.88;;;2.05;;
62711;SDS011;48772;55.586;37.730;2023-05-10T13:02:54;3.50;;;2.50;;
62711;SDS011;48772;55.586;37.730;2023-05-10T13:05:20;9.18;;;3.10;;
62711;SDS011;48772;55.586;37.730;2023-05-10T13:07:46;14.52;;;3.30;;
62711;SDS011;48772;55.586;37.730;2023-05-10T13:10:11;5.07;;;2.42;;
62711;SDS011;48772;55.586;37.730;2023-05-10T13:12:37;8.88;;;2.67;;
62711;SDS011;48772;55.586;37.730;2023-05-10T13:15:03;2.85;;;2.03;;
62711;SDS011;48772;55.586;37.730;2023-05-10T13:17:31;8.00;;;2.30;;
62711;SDS011;48772;55.586;37.730;2023-05-10T13:19:57;7.47;;;2.13;;
62711;SDS011;48772;55.586;37.730;2023-05-10T13:22:23;7.47;;;2.85;;
62711;SDS011;48772;55.586;37.730;2023-05-10T13:24:48;5.97;;;2.28;;
62711;SDS011;48772;55.586;37.730;2023-05-10T13:27:14;5.07;;;2.40;;
62711;SDS011;48772;55.586;37.730;2023-05-10T13:29:40;4.68;;;2.20;;
62711;SDS011;48772;55.586;37.730;2023-05-10T13:32:06;13.68;;;2.63;;
62711;SDS011;48772;55.586;37.730;2023-05-10T13:34:32;7.40;;;2.25;;
62711;SDS011;48772;55.586;37.730;2023-05-10T13:36:58;4.00;;;2.28;;
62711;SDS011;48772;55.586;37.730;2023-05-10T13:39:23;12.68;;;2.30;;
62711;SDS011;48772;55.586;37.730;2023-05-10T13:41:49;12.00;;;2.60;;
62711;SDS011;48772;55.586;37.730;2023-05-10T13:44:15;7.15;;;2.30;;
62711;SDS011;48772;55.586;37.730;2023-05-10T13:46:41;5.95;;;2.17;;
62711;SDS011;48772;55.586;37.730;2023-05-10T13:49:10;3.92;;;1.98;;
62711;SDS011;48772;55.586;37.730;2023-05-10T13:51:36;3.28;;;2.00;;
62711;SDS011;48772;55.586;37.730;2023-05-10T13:54:02;3.95;;;1.85;;
62711;SDS011;48772;55.586;37.730;2023-05-10T13:56:28;5.25;;;2.30;;
62711;SDS011;48772;55.586;37.730;2023-05-10T13:58:55;5.70;;;1.92;;
62711;SDS011;48772;55.586;37.730;2023-05-10T14:01:22;7.40;;;2.10;;
62711;SDS011;48772;55.586;37.730;2023-05-10T14:03:48;9.05;;;2.38;;
62711;SDS011;48772;55.586;37.730;2023-05-10T14:06:14;6.88;;;2.30;;
62711;SDS011;48772;55.586;37.730;2023-05-10T14:08:40;4.88;;;2.38;;
62711;SDS011;48772;55.586;37.730;2023-05-10T14:11:06;3.80;;;1.90;;
62711;SDS011;48772;55.586;37.730;2023-05-10T14:13:32;2.78;;;2.13;;
62711;SDS011;48772;55.586;37.730;2023-05-10T14:15:58;4.13;;;2.10;;
62711;SDS011;48772;55.586;37.730;2023-05-10T14:18:28;2.90;;;1.80;;
62711;SDS011;48772;55.586;37.730;2023-05-10T14:20:54;5.22;;;2.13;;
62711;SDS011;48772;55.586;37.730;2023-05-10T14:23:21;3.17;;;1.77;;
62711;SDS011;48772;55.586;37.730;2023-05-10T14:25:51;7.82;;;2.13;;
62711;SDS011;48772;55.586;37.730;2023-05-10T14:28:18;6.55;;;2.10;;
62711;SDS011;48772;55.586;37.730;2023-05-10T14:30:44;3.55;;;1.88;;
62711;SDS011;48772;55.586;37.730;2023-05-10T14:33:10;11.73;;;2.00;;
62711;SDS011;48772;55.586;37.730;2023-05-10T14:35:36;6.32;;;1.92;;
62711;SDS011;48772;55.586;37.730;2023-05-10T14:38:03;5.20;;;1.80;;
62711;SDS011;48772;55.586;37.730;2023-05-10T14:40:29;6.22;;;2.05;;
62711;SDS011;48772;55.586;37.730;2023-05-10T14:42:55;4.57;;;1.80;;
62711;SDS011;48772;55.586;37.730;2023-05-10T14:45:22;4.80;;;1.90;;
62711;SDS011;48772;55.586;37.730;2023-05-10T14:47:48;7.30;;;2.38;;
62711;SDS011;48772;55.586;37.730;2023-05-10T14:50:16;4.25;;;2.53;;
62711;SDS011;48772;55.586;37.730;2023-05-10T14:52:48;4.07;;;2.10;;
62711;SDS011;48772;55.586;37.730;2023-05-10T14:55:15;5.47;;;2.15;;
62711;SDS011;48772;55.586;37.730;2023-05-10T14:57:41;6.32;;;1.90;;
62711;SDS011;48772;55.586;37.730;2023-05-10T15:00:08;8.73;;;2.20;;
62711;SDS011;48772;55.586;37.730;2023-05-10T15:02:34;2.97;;;2.08;;
62711;SDS011;48772;55.586;37.730;2023-05-10T15:05:00;14.07;;;2.15;;
62711;SDS011;48772;55.586;37.730;2023-05-10T15:07:29;6.25;;;2.20;;
62711;SDS011;48772;55.586;37.730;2023-05-10T15:09:56;7.18;;;2.08;;
62711;SDS011;48772;55.586;37.730;2023-05-10T15:12:22;4.07;;;2.00;;
62711;SDS011;48772;55.586;37.730;2023-05-10T15:14:48;5.05;;;1.98;;
62711;SDS011;48772;55.586;37.730;2023-05-10T15:17:13;3.08;;;1.90;;
62711;SDS011;48772;55.586;37.730;2023-05-10T15:19:40;3.40;;;1.65;;
62711;SDS011;48772;55.586;37.730;2023-05-10T15:22:05;4.60;;;2.22;;
62711;SDS011;48772;55.586;37.730;2023-05-10T15:24:31;5.20;;;2.10;;
62711;SDS011;48772;55.586;37.730;2023-05-10T15:26:57;6.50;;;2.47;;
62711;SDS011;48772;55.586;37.730;2023-05-10T15:29:23;5.35;;;2.05;;
62711;SDS011;48772;55.586;37.730;2023-05-10T15:31:49;9.13;;;2.00;;
62711;SDS011;48772;55.586;37.730;2023-05-10T15:34:16;6.32;;;2.25;;
62711;SDS011;48772;55.586;37.730;2023-05-10T15:36:44;5.88;;;2.13;;
62711;SDS011;48772;55.586;37.730;2023-05-10T15:39:10;8.30;;;2.38;;
62711;SDS011;48772;55.586;37.730;2023-05-10T15:41:36;6.68;;;2.00;;
62711;SDS011;48772;55.586;37.730;2023-05-10T15:44:03;5.28;;;2.08;;
62711;SDS011;48772;55.586;37.730;2023-05-10T15:46:29;3.50;;;1.90;;
62711;SDS011;48772;55.586;37.730;2023-05-10T15:48:56;10.52;;;2.20;;
62711;SDS011;48772;55.586;37.730;2023-05-10T15:51:24;9.80;;;2.47;;
62711;SDS011;48772;55.586;37.730;2023-05-10T15:53:50;6.45;;;2.13;;
62711;SDS011;48772;55.586;37.730;2023-05-10T15:56:16;5.97;;;2.05;;
62711;SDS011;48772;55.586;37.730;2023-05-10T15:58:42;6.97;;;2.20;;
62711;SDS011;48772;55.586;37.730;2023-05-10T16:01:08;3.97;;;2.30;;
62711;SDS011;48772;55.586;37.730;2023-05-10T16:03:36;3.65;;;2.00;;
62711;SDS011;48772;55.586;37.730;2023-05-10T16:06:02;3.33;;;2.00;;
62711;SDS011;48772;55.586;37.730;2023-05-10T16:08:28;8.48;;;2.35;;
62711;SDS011;48772;55.586;37.730;2023-05-10T16:10:55;6.70;;;2.30;;
62711;SDS011;48772;55.586;37.730;2023-05-10T16:13:21;4.90;;;2.60;;
62711;SDS011;48772;55.586;37.730;2023-05-10T16:15:48;8.70;;;2.55;;
62711;SDS011;48772;55.586;37.730;2023-05-10T16:18:13;3.97;;;2.05;;
62711;SDS011;48772;55.586;37.730;2023-05-10T16:20:44;4.45;;;2.20;;